.
WxDataArchive / Data Records for 2016-04-07
2016-04-06 April 2016 2016-04-08

Data Records for Thursday, 07 April 2016

Time	Temp	Chill	HIndex	Humid	Dewpt	 Wind 	HiWind	WindDir	Rain 	Barom
-----	----	-----	------	-----	-----	------	------	-------	-----	-----
00:00	45.2	45.2	45.2	94	43.6	0	2	248	0.00	29.435 
00:05	45.1	45.1	45.1	94	43.5	0	1	248	0.00	29.435 
00:10	45.1	45.1	45.1	94	43.5	1	3	248	0.00	29.435 
00:15	45.1	45.1	45.1	94	43.5	1	2	248	0.00	29.432 
00:20	45.1	45.1	45.1	94	43.5	1	4	248	0.00	29.432 
00:25	45.1	45.1	45.1	94	43.5	0	3	270	0.00	29.432 
00:30	45.1	45.1	45.1	94	43.5	0	2	270	0.00	29.435 
00:35	45.1	45.1	45.1	94	43.5	1	5	270	0.00	29.435 
00:40	44.9	44.9	44.9	94	43.3	1	4	270	0.01	29.435 
00:45	44.8	44.8	44.8	94	43.2	2	4	292	0.00	29.438 
00:50	44.6	44.6	44.6	94	43.0	3	6	292	0.00	29.438 
00:55	44.3	44.3	44.3	94	42.7	3	9	248	0.01	29.438 
01:00	44.2	44.2	44.2	94	42.6	3	7	292	0.00	29.443 
01:05	44.1	44.1	44.1	94	42.5	2	6	292	0.01	29.443 
01:10	43.9	43.9	43.9	94	42.3	2	6	292	0.01	29.443 
01:15	43.8	43.8	43.8	94	42.2	2	5	292	0.00	29.450 
01:20	43.6	43.6	43.6	93	41.7	2	5	315	0.01	29.450 
01:25	43.5	43.5	43.5	93	41.6	2	10	315	0.00	29.450 
01:30	43.5	43.5	43.5	93	41.6	1	4	315	0.01	29.454 
01:35	43.3	43.3	43.3	93	41.4	1	7	292	0.00	29.454 
01:40	43.2	43.2	43.2	93	41.3	1	3	292	0.01	29.454 
01:45	43.2	43.2	43.2	93	41.3	1	3	315	0.01	29.455 
01:50	43.2	43.2	43.2	93	41.3	1	3	315	0.01	29.455 
01:55	42.8	42.8	42.8	93	40.9	2	6	292	0.00	29.455 
02:00	42.5	42.5	42.5	92	40.3	2	5	292	0.01	29.457 
02:05	42.2	42.2	42.2	92	40.0	1	4	270	0.00	29.457 
02:10	42.1	42.1	42.1	92	39.9	1	5	270	0.01	29.457 
02:15	42.1	42.1	42.1	92	39.9	0	1	270	0.00	29.454 
02:20	42.1	42.1	42.1	92	39.9	0	1	270	0.01	29.454 
02:25	42.2	42.2	42.2	92	40.0	0	1	270	0.00	29.454 
02:30	42.2	42.2	42.2	92	40.0	0	1	270	0.01	29.455 
02:35	42.2	42.2	42.2	92	40.0	0	1	270	0.00	29.455 
02:40	41.9	41.9	41.9	92	39.7	0	1	270	0.00	29.455 
02:45	41.8	41.8	41.8	92	39.6	0	1	270	0.00	29.451 
02:50	41.6	41.6	41.6	93	39.7	0	1	270	0.00	29.451 
02:55	41.5	41.5	41.5	93	39.6	0	1	270	0.00	29.451 
03:00	41.5	41.5	41.5	93	39.6	0	1	270	0.00	29.452 
03:05	41.3	41.3	41.3	93	39.4	0	1	270	0.00	29.452 
03:10	41.5	41.5	41.5	93	39.6	0	1	270	0.00	29.452 
03:15	41.5	41.5	41.5	93	39.6	0	1	270	0.00	29.449 
03:20	41.5	41.5	41.5	93	39.6	0	1	270	0.00	29.449 
03:25	41.5	41.5	41.5	93	39.6	0	1	270	0.00	29.449 
03:30	41.5	41.5	41.5	93	39.6	0	1	270	0.00	29.443 
03:35	41.5	41.5	41.5	93	39.6	0	1	270	0.00	29.443 
03:40	41.6	41.6	41.6	93	39.7	0	1	270	0.00	29.443 
03:45	41.6	41.6	41.6	93	39.7	0	0	---	0.00	29.440 
03:50	41.6	41.6	41.6	93	39.7	0	0	---	0.00	29.440 
03:55	41.6	41.6	41.6	94	40.0	0	1	270	0.00	29.440 
04:00	41.6	41.6	41.6	94	40.0	0	1	270	0.00	29.440 
04:05	41.6	41.6	41.6	94	40.0	0	0	---	0.00	29.440 
04:10	41.6	41.6	41.6	94	40.0	0	1	270	0.00	29.440 
04:15	41.6	41.6	41.6	94	40.0	0	2	270	0.00	29.444 
04:20	41.6	41.6	41.6	94	40.0	0	0	---	0.00	29.444 
04:25	41.8	41.8	41.8	94	40.2	0	1	270	0.00	29.444 
04:30	41.8	41.8	41.8	94	40.2	0	0	---	0.00	29.442 
04:35	41.8	41.8	41.8	94	40.2	0	1	270	0.00	29.442 
04:40	41.9	41.9	41.9	94	40.3	0	2	270	0.01	29.442 
04:45	41.9	41.9	41.9	94	40.3	0	1	270	0.00	29.442 
04:50	42.1	42.1	42.1	94	40.5	0	1	270	0.00	29.442 
04:55	42.1	42.1	42.1	94	40.5	0	1	270	0.00	29.442 
05:00	42.1	42.1	42.1	94	40.5	0	1	270	0.00	29.442 
05:05	42.1	42.1	42.1	94	40.5	0	1	270	0.00	29.442 
05:10	42.1	42.1	42.1	94	40.5	0	1	270	0.00	29.442 
05:15	42.1	42.1	42.1	94	40.5	0	1	270	0.00	29.442 
05:20	42.1	42.1	42.1	94	40.5	0	2	270	0.00	29.442 
05:25	42.1	42.1	42.1	94	40.5	0	2	270	0.00	29.442 
05:30	41.9	41.9	41.9	94	40.3	0	1	270	0.00	29.443 
05:35	41.9	41.9	41.9	94	40.3	0	1	270	0.00	29.443 
05:40	41.9	41.9	41.9	94	40.3	0	2	270	0.00	29.443 
05:45	41.9	41.9	41.9	94	40.3	0	3	270	0.00	29.443 
05:50	41.9	41.9	41.9	94	40.3	0	2	270	0.00	29.443 
05:55	41.8	41.8	41.8	94	40.2	1	3	292	0.00	29.443 
06:00	41.8	41.8	41.8	94	40.2	1	5	315	0.00	29.445 
06:05	41.6	41.6	41.6	94	40.0	1	5	315	0.01	29.445 
06:10	41.6	41.6	41.6	94	40.0	0	3	315	0.00	29.445 
06:15	41.5	41.5	41.5	94	39.9	1	3	315	0.01	29.448 
06:20	41.3	41.3	41.3	94	39.7	1	3	315	0.00	29.448 
06:25	41.2	41.2	41.2	94	39.6	1	4	315	0.00	29.448 
06:30	41.2	41.2	41.2	94	39.6	0	4	292	0.01	29.450 
06:35	41.1	41.1	41.1	94	39.5	0	2	292	0.00	29.450 
06:40	40.9	40.9	40.9	94	39.3	1	2	292	0.00	29.450 
06:45	40.8	40.8	40.8	94	39.2	1	3	292	0.01	29.459 
06:50	40.8	40.8	40.8	94	39.2	1	4	292	0.00	29.459 
06:55	40.6	40.6	40.6	94	39.0	2	5	292	0.00	29.459 
07:00	40.5	40.5	40.5	94	38.9	0	2	292	0.00	29.463 
07:05	40.5	40.5	40.5	94	38.9	0	3	292	0.01	29.463 
07:10	40.5	40.5	40.5	94	38.9	1	5	315	0.00	29.463 
07:15	40.3	40.3	40.3	94	38.7	0	3	315	0.00	29.466 
07:20	40.3	40.3	40.3	94	38.7	0	2	315	0.00	29.466 
07:25	40.3	40.3	40.3	94	38.7	0	2	315	0.00	29.466 
07:30	40.2	40.2	40.2	94	38.6	1	3	315	0.00	29.472 
07:35	40.1	40.1	40.1	94	38.5	1	4	270	0.01	29.472 
07:40	39.8	39.8	39.8	93	37.9	2	5	315	0.00	29.472 
07:45	39.5	39.5	39.5	93	37.6	2	5	292	0.00	29.479 
07:50	39.2	39.2	39.2	93	37.3	2	5	292	0.00	29.479 
07:55	39.1	39.1	39.1	93	37.2	2	5	292	0.00	29.479 
08:00	39.1	39.1	39.1	93	37.2	2	7	315	0.00	29.480 
08:05	38.9	38.9	38.9	93	37.1	1	4	292	0.00	29.480 
08:10	38.9	38.9	38.9	92	36.8	1	4	270	0.00	29.480 
08:15	38.9	38.9	38.9	92	36.8	1	3	270	0.00	29.482 
08:20	39.1	39.1	39.1	92	37.0	1	2	270	0.00	29.482 
08:25	39.1	39.1	39.1	92	37.0	0	2	270	0.00	29.482 
08:30	39.1	39.1	39.1	93	37.2	0	2	270	0.00	29.482 
08:35	39.2	39.2	39.2	93	37.3	0	3	270	0.00	29.482 
08:40	39.2	39.2	39.2	93	37.3	1	3	270	0.00	29.482 
08:45	39.2	39.2	39.2	93	37.3	1	2	270	0.00	29.483 
08:50	39.1	39.1	39.1	92	37.0	2	4	292	0.00	29.483 
08:55	39.1	39.1	39.1	92	37.0	2	3	292	0.00	29.483 
09:00	39.1	39.1	39.1	92	37.0	1	3	292	0.01	29.485 
09:05	38.8	38.8	38.8	92	36.7	3	5	270	0.00	29.485 
09:10	38.3	38.3	38.3	92	36.2	3	5	315	0.01	29.485 
09:15	37.9	37.9	37.9	92	35.8	3	7	292	0.00	29.495 
09:20	37.8	37.8	37.8	92	35.7	2	6	292	0.00	29.495 
09:25	37.8	37.8	37.8	92	35.7	1	4	315	0.00	29.495 
09:30	37.6	37.6	37.6	92	35.5	3	9	315	0.00	29.497 
09:35	37.2	37.2	37.2	91	34.8	3	10	292	0.01	29.497 
09:40	36.8	36.8	36.8	91	34.4	3	9	292	0.00	29.497 
09:45	36.8	36.8	36.8	92	34.7	2	6	292	0.01	29.501 
09:50	36.8	36.8	36.8	92	34.7	2	6	292	0.00	29.501 
09:55	36.8	36.8	36.8	92	34.7	2	5	270	0.00	29.501 
10:00	36.6	36.6	36.6	92	34.5	3	9	292	0.00	29.502 
10:05	36.8	36.8	36.8	92	34.7	2	5	292	0.00	29.502 
10:10	36.8	36.8	36.8	92	34.7	2	7	315	0.00	29.502 
10:15	36.9	36.9	36.9	92	34.8	2	6	292	0.00	29.506 
10:20	36.9	36.9	36.9	92	34.8	2	5	292	0.00	29.506 
10:25	36.8	36.8	36.8	92	34.7	3	6	292	0.00	29.506 
10:30	36.8	36.8	36.8	92	34.7	2	7	315	0.00	29.511 
10:35	36.8	36.8	36.8	92	34.7	2	6	292	0.00	29.511 
10:40	37.0	37.0	37.0	92	34.9	2	4	315	0.00	29.511 
10:45	37.2	37.2	37.2	92	35.1	1	4	292	0.00	29.514 
10:50	37.2	37.2	37.2	92	35.1	2	5	292	0.00	29.514 
10:55	37.2	37.2	37.2	92	35.1	3	7	292	0.00	29.514 
11:00	37.0	37.0	37.0	91	34.6	3	9	292	0.00	29.517 
11:05	37.0	37.0	37.0	90	34.3	3	6	315	0.00	29.517 
11:10	37.2	37.2	37.2	90	34.5	2	5	315	0.00	29.517 
11:15	37.3	37.3	37.3	89	34.4	3	7	270	0.00	29.521 
11:20	37.5	37.5	37.5	88	34.3	2	5	292	0.00	29.521 
11:25	37.6	37.6	37.6	87	34.1	3	6	292	0.00	29.521 
11:30	37.8	37.8	37.8	86	34.0	3	10	315	0.00	29.529 
11:35	37.9	37.9	37.9	84	33.5	3	7	315	0.00	29.529 
11:40	38.0	38.0	38.0	84	33.6	2	4	292	0.00	29.529 
11:45	38.0	38.0	38.0	84	33.6	2	6	292	0.00	29.532 
11:50	37.9	37.9	37.9	84	33.5	3	10	292	0.00	29.532 
11:55	37.3	34.2	37.3	83	32.6	4	10	315	0.00	29.532 
12:00	37.0	37.0	37.0	84	32.6	3	7	292	0.00	29.534 
12:05	37.3	37.3	37.3	86	33.5	2	5	292	0.00	29.534 
12:10	37.6	37.6	37.6	86	33.8	3	7	292	0.00	29.534 
12:15	37.9	37.9	37.9	85	33.8	3	8	270	0.00	29.534 
12:20	38.0	38.0	38.0	83	33.3	2	6	270	0.00	29.534 
12:25	38.5	38.5	38.5	82	33.5	3	6	270	0.00	29.534 
12:30	38.8	38.8	38.8	81	33.5	3	5	292	0.00	29.538 
12:35	38.9	38.9	38.9	80	33.3	3	8	270	0.00	29.538 
12:40	39.1	39.1	39.1	80	33.5	3	6	270	0.00	29.538 
12:45	39.1	39.1	39.1	80	33.5	2	5	270	0.00	29.536 
12:50	38.9	36.0	38.9	79	33.0	4	9	270	0.00	29.536 
12:55	39.2	39.2	39.2	81	33.9	2	5	315	0.00	29.536 
13:00	39.8	39.8	39.8	80	34.1	2	7	315	0.00	29.533 
13:05	40.1	37.4	40.1	76	33.2	4	10	292	0.00	29.533 
13:10	39.9	37.2	39.9	74	32.3	4	9	270	0.00	29.533 
13:15	38.5	34.7	38.5	78	32.2	5	12	292	0.00	29.549 
13:20	37.8	37.8	37.8	83	33.1	3	9	315	0.01	29.549 
13:25	38.0	38.0	38.0	84	33.6	3	6	292	0.00	29.549 
13:30	38.8	38.8	38.8	85	34.7	3	9	315	0.00	29.548 
13:35	39.6	39.6	39.6	84	35.2	3	7	292	0.00	29.548 
13:40	39.6	36.9	39.6	82	34.6	4	10	292	0.00	29.548 
13:45	38.8	35.1	38.8	82	33.8	5	15	315	0.00	29.554 
13:50	38.0	34.1	38.0	83	33.3	5	12	315	0.00	29.554 
13:55	38.3	38.3	38.3	83	33.6	3	6	270	0.00	29.554 
14:00	38.0	38.0	38.0	81	32.7	3	10	338	0.00	29.552 
14:05	38.6	38.6	38.6	82	33.6	3	7	270	0.00	29.552 
14:10	39.8	39.8	39.8	82	34.8	3	9	292	0.00	29.552 
14:15	39.6	36.9	39.6	78	33.3	4	10	270	0.00	29.553 
14:20	39.1	39.1	39.1	81	33.8	3	5	270	0.00	29.553 
14:25	39.3	39.3	39.3	83	34.6	3	9	292	0.00	29.553 
14:30	40.2	40.2	40.2	83	35.5	3	7	292	0.00	29.551 
14:35	40.9	38.4	40.9	81	35.5	4	12	270	0.00	29.551 
14:40	38.8	35.9	38.8	78	32.5	4	12	315	0.00	29.551 
14:45	38.6	38.6	38.6	81	33.3	3	10	315	0.00	29.562 
14:50	39.5	39.5	39.5	83	34.8	3	6	315	0.00	29.562 
14:55	40.2	37.5	40.2	81	34.8	4	14	292	0.00	29.562 
15:00	38.9	34.4	38.9	77	32.3	6	14	315	0.00	29.567 
15:05	38.0	34.1	38.0	79	32.1	5	10	292	0.00	29.567 
15:10	39.1	36.3	39.1	77	32.5	4	7	292	0.00	29.567 
15:15	40.5	37.9	40.5	77	33.9	4	10	338	0.00	29.563 
15:20	40.9	38.4	40.9	73	32.9	4	11	292	0.00	29.563 
15:25	40.6	37.2	40.6	69	31.2	5	12	292	0.00	29.563 
15:30	40.9	37.5	40.9	67	30.8	5	8	270	0.00	29.564 
15:35	41.2	37.9	41.2	68	31.5	5	10	292	0.00	29.564 
15:40	40.8	37.4	40.8	69	31.4	5	15	270	0.00	29.564 
15:45	40.3	37.7	40.3	73	32.3	4	14	315	0.00	29.574 
15:50	39.3	36.5	39.3	76	32.4	4	11	292	0.00	29.574 
15:55	38.8	38.8	38.8	78	32.5	3	9	315	0.00	29.574 
16:00	38.8	35.9	38.8	77	32.2	4	13	270	0.00	29.583 
16:05	38.3	34.5	38.3	79	32.4	5	13	292	0.00	29.583 
16:10	37.5	32.8	37.5	81	32.2	6	12	292	0.00	29.583 
16:15	37.6	34.5	37.6	82	32.6	4	9	292	0.00	29.584 
16:20	38.0	35.0	38.0	78	31.8	4	13	315	0.00	29.584 
16:25	38.3	35.4	38.3	76	31.4	4	7	270	0.00	29.584 
16:30	39.1	36.3	39.1	75	31.9	4	7	315	0.00	29.592 
16:35	39.3	35.7	39.3	74	31.7	5	10	270	0.00	29.592 
16:40	39.6	36.0	39.6	73	31.7	5	12	292	0.00	29.592 
16:45	40.1	37.4	40.1	73	32.2	4	12	292	0.00	29.595 
16:50	37.9	33.3	37.9	74	30.4	6	12	292	0.00	29.595 
16:55	36.9	33.7	36.9	81	31.6	4	11	315	0.00	29.595 
17:00	37.3	34.2	37.3	82	32.3	4	10	315	0.00	29.608 
17:05	37.9	34.9	37.9	79	32.0	4	7	270	0.00	29.608 
17:10	38.3	35.4	38.3	76	31.4	4	11	270	0.00	29.608 
17:15	38.3	35.4	38.3	76	31.4	4	11	292	0.00	29.617 
17:20	37.8	33.9	37.8	77	31.2	5	14	315	0.00	29.617 
17:25	36.9	33.7	36.9	80	31.3	4	10	315	0.00	29.617 
17:30	36.5	33.3	36.5	82	31.5	4	9	292	0.00	29.628 
17:35	36.5	33.3	36.5	79	30.6	4	10	292	0.00	29.628 
17:40	36.8	33.6	36.8	78	30.6	4	8	315	0.00	29.628 
17:45	37.2	37.2	37.2	77	30.7	3	9	292	0.00	29.635 
17:50	37.5	33.5	37.5	74	30.0	5	11	270	0.00	29.635 
17:55	37.8	37.8	37.8	75	30.6	3	7	315	0.00	29.635 
18:00	37.9	37.9	37.9	74	30.4	3	9	292	0.00	29.646 
18:05	37.6	34.5	37.6	76	30.7	4	6	270	0.00	29.646 
18:10	37.3	34.2	37.3	77	30.8	4	9	270	0.00	29.646 
18:15	37.3	34.2	37.3	77	30.8	4	9	270	0.00	29.654 
18:20	37.2	34.1	37.2	75	30.0	4	6	270	0.00	29.654 
18:25	37.3	37.3	37.3	75	30.1	3	9	292	0.00	29.654 
18:30	37.2	34.1	37.2	74	29.7	4	9	270	0.00	29.667 
18:35	36.8	32.7	36.8	76	30.0	5	12	270	0.00	29.667 
18:40	36.2	32.9	36.2	79	30.3	4	11	292	0.00	29.667 
18:45	35.8	31.5	35.8	79	29.9	5	13	292	0.01	29.680 
18:50	35.9	31.7	35.9	77	29.4	5	12	292	0.00	29.680 
18:55	35.9	32.6	35.9	77	29.4	4	9	292	0.00	29.680 
19:00	35.6	31.3	35.6	77	29.1	5	11	270	0.00	29.692 
19:05	35.5	35.5	35.5	80	30.0	2	6	292	0.00	29.692 
19:10	35.5	35.5	35.5	80	30.0	3	7	270	0.00	29.692 
19:15	35.5	35.5	35.5	79	29.6	2	6	292	0.00	29.699 
19:20	35.5	35.5	35.5	79	29.6	3	9	270	0.00	29.699 
19:25	35.5	35.5	35.5	78	29.3	3	9	292	0.00	29.699 
19:30	35.6	35.6	35.6	78	29.4	3	10	270	0.00	29.701 
19:35	35.6	35.6	35.6	77	29.1	1	3	292	0.00	29.701 
19:40	35.8	35.8	35.8	77	29.3	2	5	270	0.00	29.701 
19:45	35.8	35.8	35.8	77	29.3	3	6	292	0.00	29.710 
19:50	35.8	35.8	35.8	76	29.0	3	5	315	0.00	29.710 
19:55	35.8	35.8	35.8	76	29.0	2	5	292	0.00	29.710 
20:00	35.5	35.5	35.5	77	29.0	2	7	292	0.00	29.709 
20:05	35.3	35.3	35.3	76	28.5	3	9	315	0.00	29.709 
20:10	35.3	35.3	35.3	76	28.5	2	6	338	0.00	29.709 
20:15	35.3	35.3	35.3	76	28.5	3	9	292	0.00	29.716 
20:20	35.3	35.3	35.3	74	27.9	3	7	270	0.00	29.716 
20:25	35.5	35.5	35.5	73	27.7	3	9	292	0.00	29.716 
20:30	35.5	35.5	35.5	73	27.7	3	13	292	0.00	29.725 
20:35	35.5	35.5	35.5	73	27.7	3	9	292	0.00	29.725 
20:40	35.5	35.5	35.5	73	27.7	2	5	292	0.00	29.725 
20:45	35.3	35.3	35.3	75	28.2	2	6	292	0.00	29.734 
20:50	35.3	35.3	35.3	76	28.5	3	6	315	0.00	29.734 
20:55	35.0	35.0	35.0	77	28.5	3	10	315	0.00	29.734 
21:00	34.9	34.9	34.9	78	28.7	3	10	315	0.00	29.741 
21:05	34.7	34.7	34.7	78	28.6	3	11	315	0.00	29.741 
21:10	34.7	34.7	34.7	78	28.6	3	7	292	0.00	29.741 
21:15	34.7	34.7	34.7	77	28.2	3	9	292	0.00	29.749 
21:20	34.7	31.2	34.7	77	28.2	4	7	292	0.00	29.749 
21:25	34.7	34.7	34.7	77	28.2	3	7	292	0.00	29.749 
21:30	34.6	31.1	34.6	77	28.1	4	10	292	0.00	29.755 
21:35	34.6	30.1	34.6	76	27.8	5	16	338	0.00	29.755 
21:40	34.6	31.1	34.6	77	28.1	4	14	292	0.00	29.755 
21:45	34.3	34.3	34.3	78	28.2	3	11	292	0.00	29.765 
21:50	34.3	34.3	34.3	79	28.5	3	12	292	0.00	29.765 
21:55	34.3	34.3	34.3	79	28.5	3	10	292	0.00	29.765 
22:00	34.4	34.4	34.4	79	28.6	3	8	315	0.00	29.769 
22:05	34.4	34.4	34.4	79	28.6	3	10	270	0.00	29.769 
22:10	34.6	31.1	34.6	78	28.5	4	9	315	0.00	29.769 
22:15	34.7	31.2	34.7	77	28.2	4	12	292	0.00	29.778 
22:20	34.7	34.7	34.7	77	28.2	2	11	292	0.00	29.778 
22:25	34.9	31.4	34.9	76	28.1	4	12	292	0.00	29.778 
22:30	34.9	34.9	34.9	75	27.8	3	9	292	0.00	29.780 
22:35	34.9	31.4	34.9	75	27.8	4	11	292	0.00	29.780 
22:40	34.9	34.9	34.9	75	27.8	3	11	292	0.00	29.780 
22:45	34.9	34.9	34.9	75	27.8	3	10	292	0.00	29.782 
22:50	34.9	34.9	34.9	75	27.8	3	11	292	0.00	29.782 
22:55	34.9	30.5	34.9	75	27.8	5	10	292	0.00	29.782 
23:00	34.9	34.9	34.9	76	28.1	2	7	292	0.00	29.789 
23:05	34.9	34.9	34.9	76	28.1	2	7	292	0.00	29.789 
23:10	34.9	34.9	34.9	76	28.1	3	9	292	0.00	29.789 
23:15	34.9	34.9	34.9	76	28.1	3	11	292	0.00	29.790 
23:20	34.9	34.9	34.9	75	27.8	3	9	292	0.00	29.790 
23:25	34.9	34.9	34.9	75	27.8	2	6	292	0.00	29.790 
23:30	35.0	35.0	35.0	75	27.9	3	7	292	0.00	29.790 
23:35	35.0	35.0	35.0	75	27.9	1	5	292	0.00	29.790 
23:40	35.0	31.5	35.0	74	27.6	4	13	292	0.00	29.790 
23:45	35.0	31.5	35.0	72	26.9	4	11	292	0.00	29.787 
23:50	34.9	34.9	34.9	71	26.5	3	7	292	0.00	29.787 
23:55	34.7	31.2	34.7	70	25.9	4	12	292	0.00	29.787 

CoCoRaHS
IN-AL-39
A2 Web Hosting
Creative Commons License
GoDaddy
search engine by freefind advanced

loaded 2018-11-13 17:10:59 • last modified 2010-11-18 10:43:29
Privacy PolicyDisclaimer
• wx.awcolley.com is powered by PmWiki v.2002016 •
• all content (unless otherwise noted) © 2018 A W Colley